createdAt,value
2019-04-22T00:01:36.853Z,20.40
2019-04-22T00:04:13.575Z,19.90
2019-04-22T00:07:03.146Z,19.83
2019-04-22T00:09:41.798Z,20.37
2019-04-22T00:12:16.629Z,20.67
2019-04-22T00:14:35.075Z,20.07
2019-04-22T00:17:16.664Z,20.30
2019-04-22T00:19:45.595Z,21.93
2019-04-22T00:22:15.396Z,21.00
2019-04-22T00:24:44.570Z,22.03
2019-04-22T00:27:20.215Z,20.07
2019-04-22T00:29:59.904Z,20.70
2019-04-22T00:32:19.870Z,21.03
2019-04-22T00:34:59.320Z,21.83
2019-04-22T00:37:28.572Z,20.40
2019-04-22T00:40:03.150Z,20.57
2019-04-22T00:42:34.735Z,21.57
2019-04-22T00:45:07.986Z,20.30
2019-04-22T00:50:23.777Z,20.07
2019-04-22T00:52:40.368Z,20.17
2019-04-22T00:55:12.379Z,21.57
2019-04-22T00:57:41.545Z,20.77
2019-04-22T01:00:11.979Z,20.30
2019-04-22T01:02:49.489Z,20.23
2019-04-22T01:07:46.443Z,21.10
2019-04-22T01:10:18.834Z,21.20
2019-04-22T01:12:51.299Z,19.97
2019-04-22T01:15:23.617Z,20.03
2019-04-22T01:17:53.007Z,20.00
2019-04-22T01:20:52.397Z,19.77
2019-04-22T01:22:51.886Z,20.97
2019-04-22T01:25:21.200Z,20.00
2019-04-22T01:27:50.273Z,20.70
2019-04-22T01:30:17.422Z,20.10
2019-04-22T01:32:41.822Z,19.90
2019-04-22T01:35:26.429Z,19.13
2019-04-22T01:37:54.197Z,20.40
2019-04-22T01:40:38.563Z,19.20
2019-04-22T01:43:09.567Z,19.27
2019-04-22T01:45:39.326Z,19.30
2019-04-22T01:48:16.144Z,18.20
2019-04-22T01:50:44.308Z,19.43
2019-04-22T01:53:24.665Z,19.67
2019-04-22T01:55:55.536Z,19.13
2019-04-22T01:58:11.212Z,18.67
2019-04-22T02:00:53.477Z,18.67
2019-04-22T02:03:25.737Z,19.07
2019-04-22T02:05:52.164Z,18.00
2019-04-22T02:08:33.343Z,17.97
2019-04-22T02:10:54.848Z,19.33
2019-04-22T02:13:29.038Z,17.73
2019-04-22T02:15:58.772Z,18.83
2019-04-22T02:18:35.412Z,17.73
2019-04-22T02:20:54.919Z,18.93
2019-04-22T02:31:25.992Z,18.00
2019-04-22T02:36:23.019Z,18.83
2019-04-22T02:46:34.877Z,17.47
2019-04-22T02:56:31.541Z,17.47
2019-04-22T02:59:03.896Z,18.17
2019-04-22T03:16:40.758Z,17.50
2019-04-22T03:21:44.686Z,17.17
2019-04-22T03:24:25.573Z,17.03
2019-04-22T03:26:43.322Z,17.70
2019-04-22T03:29:11.153Z,17.43
2019-04-22T03:42:06.388Z,17.07
2019-04-22T03:47:12.064Z,17.83
2019-04-22T03:54:39.994Z,17.90
2019-04-22T03:57:26.545Z,17.73
2019-04-22T04:02:21.422Z,17.83
2019-04-22T04:04:37.123Z,17.73
2019-04-22T04:07:20.152Z,18.30
2019-04-22T04:12:21.100Z,18.53
2019-04-22T04:17:20.260Z,18.37
2019-04-22T04:20:05.858Z,19.37
2019-04-22T04:22:30.489Z,18.67
2019-04-22T04:25:08.863Z,17.90
2019-04-22T04:32:36.450Z,18.80
2019-04-22T04:40:11.645Z,17.43
2019-04-22T04:52:50.843Z,17.37
2019-04-22T04:55:18.068Z,16.70
2019-04-22T05:02:48.915Z,16.70
2019-04-22T05:05:17.664Z,16.90
2019-04-22T05:07:48.325Z,15.67
2019-04-22T05:10:31.378Z,16.70
2019-04-22T05:17:55.100Z,15.87
2019-04-22T05:20:26.659Z,15.60
2019-04-22T05:22:59.430Z,15.30
2019-04-22T05:25:19.017Z,15.37
2019-04-22T05:27:47.161Z,16.57
2019-04-22T05:30:32.410Z,15.63
2019-04-22T05:33:02.971Z,16.90
2019-04-22T05:37:58.043Z,15.50
2019-04-22T05:42:56.467Z,15.53
2019-04-22T05:45:25.443Z,15.30
2019-04-22T05:47:59.276Z,15.40
2019-04-22T05:50:27.207Z,16.23
2019-04-22T05:53:20.778Z,15.27
2019-04-22T05:55:43.297Z,14.93
2019-04-22T05:58:10.394Z,14.90
2019-04-22T06:01:12.785Z,14.20
2019-04-22T06:03:11.951Z,15.67
2019-04-22T06:05:47.250Z,14.77
2019-04-22T06:08:17.102Z,14.97
2019-04-22T06:13:12.079Z,13.33
2019-04-22T06:15:49.162Z,14.77
2019-04-22T06:18:27.549Z,13.67
2019-04-22T06:20:59.397Z,14.30
2019-04-22T06:23:35.286Z,13.67
2019-04-22T06:26:10.032Z,13.70
2019-04-22T06:28:35.274Z,13.33
2019-04-22T06:31:06.631Z,12.97
2019-04-22T06:33:34.696Z,13.47
2019-04-22T06:36:03.407Z,13.17
2019-04-22T06:38:34.070Z,13.80
2019-04-22T06:41:09.135Z,12.93
2019-04-22T06:43:47.543Z,14.20
2019-04-22T06:46:09.876Z,13.20
2019-04-22T06:48:36.043Z,14.13
2019-04-22T06:51:09.438Z,13.07
2019-04-22T06:53:40.571Z,13.27
2019-04-22T06:56:12.669Z,11.67
2019-04-22T06:58:50.637Z,13.10
2019-04-22T07:01:19.329Z,12.30
2019-04-22T07:03:52.352Z,12.93
2019-04-22T07:06:20.052Z,13.07
2019-04-22T07:11:18.986Z,11.93
2019-04-22T07:13:49.831Z,12.13
2019-04-22T07:16:30.253Z,12.13
2019-04-22T07:21:27.471Z,11.53
2019-04-22T07:26:31.859Z,11.93
2019-04-22T07:28:58.265Z,12.83
2019-04-22T07:31:28.890Z,12.20
2019-04-22T07:34:03.808Z,11.80
2019-04-22T07:36:50.642Z,11.53
2019-04-22T07:39:03.996Z,12.43
2019-04-22T07:41:33.141Z,12.17
2019-04-22T07:44:13.099Z,11.43
2019-04-22T07:46:43.185Z,12.10
2019-04-22T07:49:13.236Z,11.87
2019-04-22T07:51:36.347Z,10.90
2019-04-22T07:54:07.558Z,11.63
2019-04-22T07:56:43.938Z,11.03
2019-04-22T07:59:18.478Z,10.83
2019-04-22T08:01:47.146Z,10.50
2019-04-22T08:04:24.382Z,11.33
2019-04-22T08:06:54.954Z,11.03
2019-04-22T08:09:30.950Z,11.00
2019-04-22T08:12:04.135Z,11.03
2019-04-22T08:14:31.265Z,10.63
2019-04-22T08:17:01.457Z,10.67
2019-04-22T08:19:28.717Z,11.00
2019-04-22T08:22:02.877Z,10.57
2019-04-22T08:24:35.993Z,10.57
2019-04-22T08:27:04.517Z,9.70
2019-04-22T08:29:37.706Z,9.90
2019-04-22T08:32:06.450Z,10.07
2019-04-22T08:34:47.381Z,10.00
2019-04-22T08:37:37.045Z,10.10
2019-04-22T08:39:40.916Z,10.60
2019-04-22T08:42:20.505Z,9.70
2019-04-22T08:45:01.122Z,10.57
2019-04-22T08:47:21.522Z,11.47
2019-04-22T08:49:50.466Z,11.30
2019-04-22T08:52:16.301Z,10.10
2019-04-22T08:54:50.498Z,10.87
2019-04-22T08:57:24.509Z,10.23
2019-04-22T08:59:50.204Z,9.30
2019-04-22T09:02:25.960Z,9.80
2019-04-22T09:04:51.758Z,9.27
2019-04-22T09:07:41.379Z,9.73
2019-04-22T09:10:00.048Z,9.23
2019-04-22T09:12:37.069Z,11.27
2019-04-22T09:14:49.254Z,10.23
2019-04-22T09:17:28.372Z,9.77
2019-04-22T09:20:00.250Z,10.87
2019-04-22T09:22:47.269Z,9.43
2019-04-22T09:25:03.767Z,9.23
2019-04-22T09:27:39.923Z,9.03
2019-04-22T09:30:10.317Z,8.97
2019-04-22T09:35:11.471Z,8.63
2019-04-22T09:42:44.050Z,7.93
2019-04-22T09:45:10.239Z,8.13
2019-04-22T09:47:53.623Z,7.50
2019-04-22T09:50:15.257Z,7.33
2019-04-22T09:52:43.649Z,7.90
2019-04-22T09:55:18.237Z,7.70
2019-04-22T09:57:52.354Z,7.40
2019-04-22T10:00:20.872Z,7.27
2019-04-22T10:03:00.924Z,7.07
2019-04-22T10:05:27.418Z,7.03
2019-04-22T10:07:59.378Z,6.93
2019-04-22T10:10:26.841Z,6.50
2019-04-22T10:12:54.019Z,6.73
2019-04-22T10:15:33.321Z,6.30
2019-04-22T10:18:02.711Z,5.87
2019-04-22T10:20:31.447Z,6.40
2019-04-22T10:23:05.870Z,6.37
2019-04-22T10:25:39.783Z,6.03
2019-04-22T10:28:08.909Z,6.00
2019-04-22T10:30:44.579Z,5.50
2019-04-22T10:33:04.665Z,6.63
2019-04-22T10:35:20.989Z,6.10
2019-04-22T10:37:48.560Z,7.50
2019-04-22T10:40:29.548Z,6.87
2019-04-22T10:42:59.450Z,7.93
2019-04-22T10:45:30.360Z,7.57
2019-04-22T10:48:01.373Z,7.67
2019-04-22T10:50:46.424Z,6.17
2019-04-22T10:53:17.841Z,8.30
2019-04-22T10:55:49.327Z,6.37
2019-04-22T10:58:18.772Z,10.37
2019-04-22T11:00:50.205Z,6.77
2019-04-22T11:03:20.284Z,5.97
2019-04-22T11:05:50.578Z,6.00
2019-04-22T11:08:28.501Z,9.40
2019-04-22T11:11:07.109Z,6.67
2019-04-22T11:13:24.151Z,7.33
2019-04-22T11:15:55.015Z,6.20
2019-04-22T11:18:25.355Z,6.20
2019-04-22T11:20:55.771Z,7.37
2019-04-22T11:23:26.894Z,8.80
2019-04-22T11:25:57.653Z,6.13
2019-04-22T11:28:27.770Z,7.57
2019-04-22T11:30:58.705Z,5.40
2019-04-22T11:33:28.376Z,6.20
2019-04-22T11:35:57.880Z,5.27
2019-04-22T11:38:28.724Z,4.97
2019-04-22T11:41:03.106Z,5.43
2019-04-22T11:43:32.332Z,4.90
2019-04-22T11:46:03.246Z,5.30
2019-04-22T11:48:33.985Z,4.77
2019-04-22T11:51:04.402Z,4.67
2019-04-22T11:53:34.588Z,4.60
2019-04-22T11:56:04.732Z,4.47
2019-04-22T11:58:35.376Z,4.47
2019-04-22T12:01:06.618Z,4.33
2019-04-22T12:03:38.009Z,4.00
2019-04-22T12:06:08.420Z,4.37
2019-04-22T12:08:39.573Z,4.73
2019-04-22T12:11:11.596Z,4.33
2019-04-22T12:13:42.214Z,4.10
2019-04-22T12:16:11.811Z,4.00
2019-04-22T12:18:42.981Z,4.10
2019-04-22T12:21:15.156Z,4.47
2019-04-22T12:23:45.220Z,4.30
2019-04-22T12:26:18.890Z,5.13
2019-04-22T12:28:46.839Z,4.80
2019-04-22T12:31:17.664Z,4.27
2019-04-22T12:33:47.650Z,4.20
2019-04-22T12:36:20.282Z,5.20
2019-04-22T12:38:49.818Z,4.00
2019-04-22T12:41:19.764Z,4.20
2019-04-22T12:43:49.619Z,4.47
2019-04-22T12:46:20.381Z,3.70
2019-04-22T12:48:50.039Z,4.50
2019-04-22T12:51:20.830Z,3.77
2019-04-22T12:53:50.925Z,3.90
2019-04-22T12:56:21.764Z,3.83
2019-04-22T12:58:51.784Z,3.70
2019-04-22T13:01:21.541Z,3.70
2019-04-22T13:03:52.079Z,3.83
2019-04-22T13:06:21.828Z,4.33
2019-04-22T13:08:52.433Z,3.70
2019-04-22T13:11:28.173Z,3.93
2019-04-22T13:13:54.656Z,3.60
2019-04-22T13:16:25.019Z,4.43
2019-04-22T13:19:00.155Z,4.30
2019-04-22T13:21:26.770Z,3.63
2019-04-22T13:23:57.107Z,3.53
2019-04-22T13:26:27.160Z,3.83
2019-04-22T13:28:57.039Z,3.50
2019-04-22T13:31:26.883Z,3.37
2019-04-22T13:33:59.733Z,3.50
2019-04-22T13:36:29.747Z,3.80
2019-04-22T13:39:00.425Z,3.57
2019-04-22T13:41:39.594Z,3.93
2019-04-22T13:44:02.014Z,3.40
2019-04-22T13:46:33.635Z,3.70
2019-04-22T13:49:38.272Z,3.20
2019-04-22T13:57:00.683Z,3.53
2019-04-22T13:59:18.309Z,3.57
2019-04-22T14:01:50.738Z,3.70
2019-04-22T14:04:24.793Z,3.73
2019-04-22T14:06:54.612Z,5.23
2019-04-22T14:09:24.492Z,6.23
2019-04-22T14:11:58.275Z,6.03
2019-04-22T14:14:25.977Z,5.00
2019-04-22T14:16:55.664Z,6.07
2019-04-22T14:19:25.999Z,4.43
2019-04-22T14:21:55.738Z,4.87
2019-04-22T14:24:25.977Z,3.57
2019-04-22T14:27:13.261Z,3.30
2019-04-22T14:29:26.639Z,3.97
2019-04-22T14:34:28.550Z,3.40
2019-04-22T14:37:01.398Z,3.63
2019-04-22T14:39:31.444Z,4.97
2019-04-22T14:42:27.033Z,4.30
2019-04-22T14:44:36.833Z,3.40
2019-04-22T14:47:25.747Z,3.60
2019-04-22T14:49:52.825Z,3.33
2019-04-22T14:52:30.697Z,3.53
2019-04-22T14:54:51.818Z,4.67
2019-04-22T14:57:10.857Z,4.17
2019-04-22T14:59:41.700Z,3.90
2019-04-22T15:02:12.250Z,3.40
2019-04-22T15:04:43.015Z,3.20
2019-04-22T15:07:12.804Z,3.40
2019-04-22T15:09:44.033Z,3.87
2019-04-22T15:12:20.596Z,3.30
2019-04-22T15:14:45.781Z,3.30
2019-04-22T15:17:18.588Z,3.27
2019-04-22T15:19:58.599Z,3.30
2019-04-22T15:22:28.439Z,3.00
2019-04-22T15:24:58.600Z,2.90
2019-04-22T15:27:30.941Z,3.37
2019-04-22T15:29:59.300Z,3.23
2019-04-22T15:32:29.560Z,3.20
2019-04-22T15:34:59.580Z,3.27
2019-04-22T15:37:43.304Z,3.17
2019-04-22T15:40:13.599Z,3.10
2019-04-22T15:42:44.929Z,3.13
2019-04-22T15:45:16.592Z,3.00
2019-04-22T15:47:46.242Z,3.50
2019-04-22T15:50:18.879Z,3.20
2019-04-22T15:52:53.044Z,2.83
2019-04-22T15:55:20.737Z,2.97
2019-04-22T15:57:50.286Z,3.53
2019-04-22T16:00:33.155Z,3.80
2019-04-22T16:02:51.989Z,4.70
2019-04-22T16:05:22.528Z,3.00
2019-04-22T16:07:53.030Z,3.10
2019-04-22T16:10:23.949Z,3.10
2019-04-22T16:13:03.463Z,3.20
2019-04-22T16:15:24.814Z,3.33
2019-04-22T16:17:54.975Z,2.90
2019-04-22T16:20:25.878Z,2.90
2019-04-22T16:23:07.747Z,3.40
2019-04-22T16:25:45.344Z,3.20
2019-04-22T16:28:17.312Z,3.53
2019-04-22T16:30:47.083Z,3.27
2019-04-22T16:33:17.290Z,2.90
2019-04-22T16:35:48.802Z,3.30
2019-04-22T16:38:19.167Z,3.47
2019-04-22T16:40:48.896Z,2.93
2019-04-22T16:43:19.483Z,3.23
2019-04-22T16:45:49.677Z,3.30
2019-04-22T16:48:19.843Z,3.57
2019-04-22T16:50:52.230Z,2.93
2019-04-22T16:53:20.895Z,2.93
2019-04-22T16:55:50.831Z,3.20
2019-04-22T16:58:20.845Z,3.07
2019-04-22T17:00:50.385Z,3.13
2019-04-22T17:03:28.956Z,3.30
2019-04-22T17:06:12.124Z,3.10
2019-04-22T17:08:42.565Z,2.93
2019-04-22T17:11:13.852Z,3.20
2019-04-22T17:13:44.552Z,3.03
2019-04-22T17:16:16.018Z,3.20
2019-04-22T17:18:47.136Z,2.77
2019-04-22T17:21:17.580Z,3.03
2019-04-22T17:23:47.573Z,2.93
2019-04-22T17:26:18.750Z,3.03
2019-04-22T17:28:49.341Z,3.07
2019-04-22T17:31:20.630Z,3.37
2019-04-22T17:33:50.794Z,2.83
2019-04-22T17:36:20.591Z,3.10
2019-04-22T17:38:58.384Z,3.00
2019-04-22T17:41:34.406Z,2.90
2019-04-22T17:44:18.581Z,2.70
2019-04-22T17:46:48.356Z,3.20
2019-04-22T17:49:50.568Z,2.90
2019-04-22T17:57:22.385Z,2.53
2019-04-22T17:59:50.605Z,2.47
2019-04-22T18:02:24.993Z,2.60
2019-04-22T18:04:42.896Z,2.60
2019-04-22T18:10:24.266Z,2.40
2019-04-22T18:12:39.801Z,2.77
2019-04-22T18:15:04.052Z,2.63
2019-04-22T18:17:37.345Z,2.77
2019-04-22T18:20:02.671Z,2.60
2019-04-22T18:22:24.500Z,2.70
2019-04-22T18:24:58.414Z,2.90
2019-04-22T18:30:03.909Z,2.67
2019-04-22T18:32:38.041Z,2.87
2019-04-22T18:35:11.751Z,2.40
2019-04-22T18:37:46.998Z,2.80
2019-04-22T18:40:15.861Z,2.80
2019-04-22T18:42:49.433Z,2.97
2019-04-22T18:45:29.617Z,3.10
2019-04-22T18:47:44.212Z,2.70
2019-04-22T18:50:21.819Z,2.90
2019-04-22T18:52:54.563Z,3.03
2019-04-22T18:55:34.021Z,3.13
2019-04-22T18:58:08.924Z,2.90
2019-04-22T19:00:34.220Z,3.00
2019-04-22T19:03:13.491Z,3.23
2019-04-22T19:06:02.628Z,3.20
2019-04-22T19:08:33.354Z,3.10
2019-04-22T19:11:08.145Z,3.20
2019-04-22T19:16:21.065Z,3.10
2019-04-22T19:18:41.852Z,3.00
2019-04-22T19:21:15.078Z,3.20
2019-04-22T19:23:54.070Z,3.10
2019-04-22T19:26:36.608Z,3.60
2019-04-22T19:28:54.425Z,3.67
2019-04-22T19:31:25.032Z,3.07
2019-04-22T19:34:00.757Z,3.60
2019-04-22T19:36:26.175Z,3.20
2019-04-22T19:39:02.928Z,3.57
2019-04-22T19:41:30.590Z,3.70
2019-04-22T19:44:05.559Z,3.40
2019-04-22T19:46:33.255Z,3.40
2019-04-22T19:49:12.030Z,3.13
2019-04-22T19:51:47.636Z,3.33
2019-04-22T19:54:07.675Z,3.70
2019-04-22T19:56:33.729Z,3.10
2019-04-22T19:59:06.338Z,3.23
2019-04-22T20:01:49.272Z,3.40
2019-04-22T20:04:41.703Z,3.50
2019-04-22T20:06:59.117Z,3.00
2019-04-22T20:09:39.858Z,3.50
2019-04-22T20:12:02.831Z,3.73
2019-04-22T20:14:35.780Z,3.50
2019-04-22T20:17:00.471Z,3.40
2019-04-22T20:19:48.066Z,3.50
2019-04-22T20:22:09.592Z,3.17
2019-04-22T20:24:27.654Z,3.33
2019-04-22T20:27:13.591Z,3.20
2019-04-22T20:29:41.721Z,3.27
2019-04-22T20:32:12.326Z,3.50
2019-04-22T20:34:44.055Z,3.70
2019-04-22T20:37:28.544Z,3.60
2019-04-22T20:39:50.260Z,3.50
2019-04-22T20:42:31.102Z,3.10
2019-04-22T20:44:52.031Z,3.47
2019-04-22T20:47:16.487Z,3.60
2019-04-22T20:49:54.588Z,3.50
2019-04-22T20:52:33.122Z,3.90
2019-04-22T20:54:50.957Z,3.70
2019-04-22T20:57:25.471Z,3.40
2019-04-22T20:59:52.203Z,3.50
2019-04-22T21:02:23.887Z,3.43
2019-04-22T21:04:43.176Z,3.53
2019-04-22T21:07:26.783Z,3.40
2019-04-22T21:09:59.404Z,3.20
2019-04-22T21:12:22.407Z,3.13
2019-04-22T21:15:06.790Z,3.30
2019-04-22T21:17:34.800Z,3.20
2019-04-22T21:20:15.575Z,3.03
2019-04-22T21:22:40.445Z,3.07
2019-04-22T21:25:02.381Z,3.20
2019-04-22T21:27:45.352Z,3.00
2019-04-22T21:30:03.318Z,3.50
2019-04-22T21:32:39.101Z,3.17
2019-04-22T21:35:17.832Z,3.13
2019-04-22T21:37:43.121Z,3.60
2019-04-22T21:40:17.884Z,3.20
2019-04-22T21:42:48.617Z,3.30
2019-04-22T21:45:16.668Z,3.30
2019-04-22T21:47:58.849Z,3.27
2019-04-22T21:50:35.661Z,3.47
2019-04-22T21:52:56.922Z,3.57
2019-04-22T21:55:23.710Z,3.57
2019-04-22T21:58:05.273Z,3.47
2019-04-22T22:03:10.888Z,3.50
2019-04-22T22:05:28.649Z,3.70
2019-04-22T22:07:55.836Z,3.53
2019-04-22T22:10:41.804Z,3.97
2019-04-22T22:13:10.992Z,4.00
2019-04-22T22:15:42.229Z,3.90
2019-04-22T22:18:09.726Z,3.83
2019-04-22T22:20:52.407Z,4.30
2019-04-22T22:23:22.254Z,3.73
2019-04-22T22:25:46.802Z,3.70
2019-04-22T22:28:38.305Z,3.53
2019-04-22T22:30:58.246Z,4.00
2019-04-22T22:33:17.393Z,3.87
2019-04-22T22:35:45.766Z,4.13
2019-04-22T22:38:19.599Z,4.10
2019-04-22T22:40:35.893Z,4.00
2019-04-22T22:43:11.776Z,3.90
2019-04-22T22:45:43.802Z,3.80
2019-04-22T22:50:52.148Z,4.17
2019-04-22T22:53:36.854Z,3.80
2019-04-22T22:55:57.692Z,3.63
2019-04-22T22:58:34.860Z,3.53
2019-04-22T23:00:59.500Z,4.10
2019-04-22T23:06:12.817Z,3.53
2019-04-22T23:08:39.921Z,3.57
2019-04-22T23:11:16.981Z,3.97
2019-04-22T23:13:38.677Z,3.87
2019-04-22T23:16:00.946Z,3.60
2019-04-22T23:18:19.863Z,3.73
2019-04-22T23:20:51.773Z,3.80
2019-04-22T23:23:40.870Z,3.90
2019-04-22T23:26:10.308Z,3.47
2019-04-22T23:28:40.098Z,3.90
2019-04-22T23:31:21.146Z,3.83
2019-04-22T23:34:00.956Z,3.80
2019-04-22T23:36:54.522Z,3.83
2019-04-22T23:39:37.277Z,3.60
2019-04-22T23:42:18.906Z,4.47
2019-04-22T23:44:35.020Z,4.17
2019-04-22T23:47:02.017Z,4.07
2019-04-22T23:49:30.256Z,3.80
2019-04-22T23:52:09.038Z,3.73
2019-04-22T23:54:48.554Z,3.70
2019-04-22T23:57:03.424Z,3.73
